sensor_id;sensor_type;location;lat;lon;timestamp;temperature;humidity
41904;DHT22;27586;51.124;4.182;2023-05-07T00:02:22;16.70;99.90
41904;DHT22;27586;51.124;4.182;2023-05-07T00:04:48;16.80;99.90
41904;DHT22;27586;51.124;4.182;2023-05-07T00:07:14;16.80;99.90
41904;DHT22;27586;51.124;4.182;2023-05-07T00:09:40;16.80;99.90
41904;DHT22;27586;51.124;4.182;2023-05-07T00:12:07;16.80;99.90
41904;DHT22;27586;51.124;4.182;2023-05-07T00:14:32;16.80;99.90
41904;DHT22;27586;51.124;4.182;2023-05-07T00:16:58;16.80;99.90
41904;DHT22;27586;51.124;4.182;2023-05-07T00:19:24;16.70;99.90
41904;DHT22;27586;51.124;4.182;2023-05-07T00:21:49;16.70;99.90
41904;DHT22;27586;51.124;4.182;2023-05-07T00:24:15;16.70;99.90
41904;DHT22;27586;51.124;4.182;2023-05-07T00:26:41;16.60;99.90
41904;DHT22;27586;51.124;4.182;2023-05-07T00:29:06;16.60;99.90
41904;DHT22;27586;51.124;4.182;2023-05-07T00:31:32;16.60;99.90
41904;DHT22;27586;51.124;4.182;2023-05-07T00:33:58;16.60;99.90
41904;DHT22;27586;51.124;4.182;2023-05-07T00:36:23;16.60;99.90
41904;DHT22;27586;51.124;4.182;2023-05-07T00:38:49;16.60;99.90
41904;DHT22;27586;51.124;4.182;2023-05-07T00:41:15;16.70;99.90
41904;DHT22;27586;51.124;4.182;2023-05-07T00:43:41;16.70;99.90
41904;DHT22;27586;51.124;4.182;2023-05-07T00:46:06;16.70;99.90
41904;DHT22;27586;51.124;4.182;2023-05-07T00:48:32;16.60;99.90
41904;DHT22;27586;51.124;4.182;2023-05-07T00:50:58;16.60;99.90
41904;DHT22;27586;51.124;4.182;2023-05-07T00:53:24;16.60;99.90
41904;DHT22;27586;51.124;4.182;2023-05-07T00:55:49;16.60;99.90
41904;DHT22;27586;51.124;4.182;2023-05-07T00:58:16;16.50;99.90
41904;DHT22;27586;51.124;4.182;2023-05-07T01:00:42;16.50;99.90
41904;DHT22;27586;51.124;4.182;2023-05-07T01:03:08;16.50;99.90
41904;DHT22;27586;51.124;4.182;2023-05-07T01:05:34;16.40;99.90
41904;DHT22;27586;51.124;4.182;2023-05-07T01:08:01;16.40;99.90
41904;DHT22;27586;51.124;4.182;2023-05-07T01:10:27;16.40;99.90
41904;DHT22;27586;51.124;4.182;2023-05-07T01:12:53;16.40;99.90
41904;DHT22;27586;51.124;4.182;2023-05-07T01:15:19;16.30;99.90
41904;DHT22;27586;51.124;4.182;2023-05-07T01:17:45;16.30;99.90
41904;DHT22;27586;51.124;4.182;2023-05-07T01:20:11;16.30;99.90
41904;DHT22;27586;51.124;4.182;2023-05-07T01:22:38;16.30;99.90
41904;DHT22;27586;51.124;4.182;2023-05-07T01:25:05;16.30;99.90
41904;DHT22;27586;51.124;4.182;2023-05-07T01:27:31;16.20;99.90
41904;DHT22;27586;51.124;4.182;2023-05-07T01:29:58;16.10;99.90
41904;DHT22;27586;51.124;4.182;2023-05-07T01:32:38;16.10;99.90
41904;DHT22;27586;51.124;4.182;2023-05-07T01:35:13;16.10;99.90
41904;DHT22;27586;51.124;4.182;2023-05-07T01:37:39;16.10;99.90
41904;DHT22;27586;51.124;4.182;2023-05-07T01:40:06;16.10;99.90
41904;DHT22;27586;51.124;4.182;2023-05-07T01:42:32;16.10;99.90
41904;DHT22;27586;51.124;4.182;2023-05-07T01:44:58;16.10;99.90
41904;DHT22;27586;51.124;4.182;2023-05-07T01:47:25;16.10;99.90
41904;DHT22;27586;51.124;4.182;2023-05-07T01:49:51;16.10;99.90
41904;DHT22;27586;51.124;4.182;2023-05-07T01:52:17;16.00;99.90
41904;DHT22;27586;51.124;4.182;2023-05-07T01:54:43;16.00;99.90
41904;DHT22;27586;51.124;4.182;2023-05-07T01:57:08;15.90;99.90
41904;DHT22;27586;51.124;4.182;2023-05-07T01:59:34;16.00;99.90
41904;DHT22;27586;51.124;4.182;2023-05-07T02:02:00;16.00;99.90
41904;DHT22;27586;51.124;4.182;2023-05-07T02:04:26;16.00;99.90
41904;DHT22;27586;51.124;4.182;2023-05-07T02:06:51;16.00;99.90
41904;DHT22;27586;51.124;4.182;2023-05-07T02:09:18;16.10;99.90
41904;DHT22;27586;51.124;4.182;2023-05-07T02:11:44;16.10;99.90
41904;DHT22;27586;51.124;4.182;2023-05-07T02:14:10;16.10;99.90
41904;DHT22;27586;51.124;4.182;2023-05-07T02:16:35;16.10;99.90
41904;DHT22;27586;51.124;4.182;2023-05-07T02:19:01;16.10;99.90
41904;DHT22;27586;51.124;4.182;2023-05-07T02:21:27;16.10;99.90
41904;DHT22;27586;51.124;4.182;2023-05-07T02:23:53;16.20;99.90
41904;DHT22;27586;51.124;4.182;2023-05-07T02:26:19;16.20;99.90
41904;DHT22;27586;51.124;4.182;2023-05-07T02:28:45;16.20;99.90
41904;DHT22;27586;51.124;4.182;2023-05-07T02:31:10;16.20;99.90
41904;DHT22;27586;51.124;4.182;2023-05-07T02:33:36;16.20;99.90
41904;DHT22;27586;51.124;4.182;2023-05-07T02:36:20;16.20;99.90
41904;DHT22;27586;51.124;4.182;2023-05-07T02:38:45;16.30;99.90
41904;DHT22;27586;51.124;4.182;2023-05-07T02:41:11;16.30;99.90
41904;DHT22;27586;51.124;4.182;2023-05-07T02:43:37;16.30;99.90
41904;DHT22;27586;51.124;4.182;2023-05-07T02:46:07;16.30;99.90
41904;DHT22;27586;51.124;4.182;2023-05-07T02:48:33;16.30;99.90
41904;DHT22;27586;51.124;4.182;2023-05-07T02:50:59;16.30;99.90
41904;DHT22;27586;51.124;4.182;2023-05-07T02:53:25;16.30;99.90
41904;DHT22;27586;51.124;4.182;2023-05-07T02:55:56;16.30;99.90
41904;DHT22;27586;51.124;4.182;2023-05-07T02:58:22;16.30;99.90
41904;DHT22;27586;51.124;4.182;2023-05-07T03:00:48;16.30;99.90
41904;DHT22;27586;51.124;4.182;2023-05-07T03:03:14;16.30;99.90
41904;DHT22;27586;51.124;4.182;2023-05-07T03:05:40;16.20;99.90
41904;DHT22;27586;51.124;4.182;2023-05-07T03:08:06;16.20;99.90
41904;DHT22;27586;51.124;4.182;2023-05-07T03:10:35;16.20;99.90
41904;DHT22;27586;51.124;4.182;2023-05-07T03:13:01;16.20;99.90
41904;DHT22;27586;51.124;4.182;2023-05-07T03:15:27;16.20;99.90
41904;DHT22;27586;51.124;4.182;2023-05-07T03:17:53;16.20;99.90
41904;DHT22;27586;51.124;4.182;2023-05-07T03:20:19;16.20;99.90
41904;DHT22;27586;51.124;4.182;2023-05-07T03:22:44;16.20;99.90
41904;DHT22;27586;51.124;4.182;2023-05-07T03:25:10;16.10;99.90
41904;DHT22;27586;51.124;4.182;2023-05-07T03:27:36;16.10;99.90
41904;DHT22;27586;51.124;4.182;2023-05-07T03:30:02;16.20;99.90
41904;DHT22;27586;51.124;4.182;2023-05-07T03:32:28;16.20;99.90
41904;DHT22;27586;51.124;4.182;2023-05-07T03:34:54;16.20;99.90
41904;DHT22;27586;51.124;4.182;2023-05-07T03:37:19;16.20;99.90
41904;DHT22;27586;51.124;4.182;2023-05-07T03:39:45;16.20;99.90
41904;DHT22;27586;51.124;4.182;2023-05-07T03:42:11;16.20;99.90
41904;DHT22;27586;51.124;4.182;2023-05-07T03:44:36;16.10;99.90
41904;DHT22;27586;51.124;4.182;2023-05-07T03:47:03;16.10;99.90
41904;DHT22;27586;51.124;4.182;2023-05-07T03:49:28;16.20;99.90
41904;DHT22;27586;51.124;4.182;2023-05-07T03:51:54;16.10;99.90
41904;DHT22;27586;51.124;4.182;2023-05-07T03:54:21;16.10;99.90
41904;DHT22;27586;51.124;4.182;2023-05-07T03:56:46;16.10;99.90
41904;DHT22;27586;51.124;4.182;2023-05-07T03:59:12;16.10;99.90
41904;DHT22;27586;51.124;4.182;2023-05-07T04:01:38;16.10;99.90
41904;DHT22;27586;51.124;4.182;2023-05-07T04:04:04;16.20;99.90
41904;DHT22;27586;51.124;4.182;2023-05-07T04:06:30;16.20;99.90
41904;DHT22;27586;51.124;4.182;2023-05-07T04:08:56;16.20;99.90
41904;DHT22;27586;51.124;4.182;2023-05-07T04:11:22;16.10;99.90
41904;DHT22;27586;51.124;4.182;2023-05-07T04:13:48;16.20;99.90
41904;DHT22;27586;51.124;4.182;2023-05-07T04:16:14;16.20;99.90
41904;DHT22;27586;51.124;4.182;2023-05-07T04:18:39;16.20;99.90
41904;DHT22;27586;51.124;4.182;2023-05-07T04:21:05;16.20;99.90
41904;DHT22;27586;51.124;4.182;2023-05-07T04:23:31;16.20;99.90
41904;DHT22;27586;51.124;4.182;2023-05-07T04:25:56;16.20;99.90
41904;DHT22;27586;51.124;4.182;2023-05-07T04:28:23;16.20;99.90
41904;DHT22;27586;51.124;4.182;2023-05-07T04:30:49;16.20;99.90
41904;DHT22;27586;51.124;4.182;2023-05-07T04:33:15;16.20;99.90
41904;DHT22;27586;51.124;4.182;2023-05-07T04:35:43;16.20;99.90
41904;DHT22;27586;51.124;4.182;2023-05-07T04:38:09;16.20;99.90
41904;DHT22;27586;51.124;4.182;2023-05-07T04:40:38;16.20;99.90
41904;DHT22;27586;51.124;4.182;2023-05-07T04:43:04;16.30;99.90
41904;DHT22;27586;51.124;4.182;2023-05-07T04:45:30;16.20;99.90
41904;DHT22;27586;51.124;4.182;2023-05-07T04:47:56;16.20;99.90
41904;DHT22;27586;51.124;4.182;2023-05-07T04:50:21;16.20;99.90
41904;DHT22;27586;51.124;4.182;2023-05-07T04:52:49;16.20;99.90
41904;DHT22;27586;51.124;4.182;2023-05-07T04:55:15;16.20;99.90
41904;DHT22;27586;51.124;4.182;2023-05-07T04:57:41;16.20;99.90
41904;DHT22;27586;51.124;4.182;2023-05-07T05:00:07;16.20;99.90
41904;DHT22;27586;51.124;4.182;2023-05-07T05:02:35;16.20;99.90
41904;DHT22;27586;51.124;4.182;2023-05-07T05:05:01;16.20;99.90
41904;DHT22;27586;51.124;4.182;2023-05-07T05:07:29;16.30;99.90
41904;DHT22;27586;51.124;4.182;2023-05-07T05:09:55;16.30;99.90
41904;DHT22;27586;51.124;4.182;2023-05-07T05:12:22;16.40;99.90
41904;DHT22;27586;51.124;4.182;2023-05-07T05:14:48;16.30;99.90
41904;DHT22;27586;51.124;4.182;2023-05-07T05:17:14;16.40;99.90
41904;DHT22;27586;51.124;4.182;2023-05-07T05:19:39;16.40;99.90
41904;DHT22;27586;51.124;4.182;2023-05-07T05:22:05;16.40;99.90
41904;DHT22;27586;51.124;4.182;2023-05-07T05:24:31;16.40;99.90
41904;DHT22;27586;51.124;4.182;2023-05-07T05:26:57;16.40;99.90
41904;DHT22;27586;51.124;4.182;2023-05-07T05:29:22;16.50;99.90
41904;DHT22;27586;51.124;4.182;2023-05-07T05:31:48;16.50;99.90
41904;DHT22;27586;51.124;4.182;2023-05-07T05:34:14;16.50;99.90
41904;DHT22;27586;51.124;4.182;2023-05-07T05:36:39;16.50;99.90
41904;DHT22;27586;51.124;4.182;2023-05-07T05:39:05;16.50;99.90
41904;DHT22;27586;51.124;4.182;2023-05-07T05:41:31;16.50;99.90
41904;DHT22;27586;51.124;4.182;2023-05-07T05:43:57;16.60;99.90
41904;DHT22;27586;51.124;4.182;2023-05-07T05:46:22;16.50;99.90
41904;DHT22;27586;51.124;4.182;2023-05-07T05:48:48;16.50;99.90
41904;DHT22;27586;51.124;4.182;2023-05-07T05:51:14;16.40;99.90
41904;DHT22;27586;51.124;4.182;2023-05-07T05:53:39;16.40;99.90
41904;DHT22;27586;51.124;4.182;2023-05-07T05:56:05;16.50;99.90
41904;DHT22;27586;51.124;4.182;2023-05-07T05:58:31;16.60;99.90
41904;DHT22;27586;51.124;4.182;2023-05-07T06:00:57;16.50;99.90
41904;DHT22;27586;51.124;4.182;2023-05-07T06:03:23;16.50;99.90
41904;DHT22;27586;51.124;4.182;2023-05-07T06:05:49;16.50;99.90
41904;DHT22;27586;51.124;4.182;2023-05-07T06:08:14;16.40;99.90
41904;DHT22;27586;51.124;4.182;2023-05-07T06:10:41;16.40;99.90
41904;DHT22;27586;51.124;4.182;2023-05-07T06:13:07;16.50;99.90
41904;DHT22;27586;51.124;4.182;2023-05-07T06:15:32;16.60;99.90
41904;DHT22;27586;51.124;4.182;2023-05-07T06:17:58;16.70;99.90
41904;DHT22;27586;51.124;4.182;2023-05-07T06:20:23;16.80;99.90
41904;DHT22;27586;51.124;4.182;2023-05-07T06:22:49;16.80;99.90
41904;DHT22;27586;51.124;4.182;2023-05-07T06:25:15;16.90;99.90
41904;DHT22;27586;51.124;4.182;2023-05-07T06:27:41;16.80;99.90
41904;DHT22;27586;51.124;4.182;2023-05-07T06:30:07;17.00;99.90
41904;DHT22;27586;51.124;4.182;2023-05-07T06:32:33;17.00;99.90
41904;DHT22;27586;51.124;4.182;2023-05-07T06:34:59;17.10;99.90
41904;DHT22;27586;51.124;4.182;2023-05-07T06:37:25;17.10;99.90
41904;DHT22;27586;51.124;4.182;2023-05-07T06:39:50;17.10;99.90
41904;DHT22;27586;51.124;4.182;2023-05-07T06:42:16;17.10;99.90
41904;DHT22;27586;51.124;4.182;2023-05-07T06:44:42;17.10;99.90
41904;DHT22;27586;51.124;4.182;2023-05-07T06:47:07;17.10;99.90
41904;DHT22;27586;51.124;4.182;2023-05-07T06:49:33;17.20;99.90
41904;DHT22;27586;51.124;4.182;2023-05-07T06:51:59;17.30;99.90
41904;DHT22;27586;51.124;4.182;2023-05-07T06:54:25;17.30;99.90
41904;DHT22;27586;51.124;4.182;2023-05-07T06:56:50;17.20;99.90
41904;DHT22;27586;51.124;4.182;2023-05-07T06:59:16;17.30;99.90
41904;DHT22;27586;51.124;4.182;2023-05-07T07:01:42;17.40;99.90
41904;DHT22;27586;51.124;4.182;2023-05-07T07:04:07;17.50;99.90
41904;DHT22;27586;51.124;4.182;2023-05-07T07:06:33;17.40;99.90
41904;DHT22;27586;51.124;4.182;2023-05-07T07:08:59;17.30;99.90
41904;DHT22;27586;51.124;4.182;2023-05-07T07:11:25;17.40;99.90
41904;DHT22;27586;51.124;4.182;2023-05-07T07:13:51;17.40;99.90
41904;DHT22;27586;51.124;4.182;2023-05-07T07:16:16;17.40;99.90
41904;DHT22;27586;51.124;4.182;2023-05-07T07:18:42;17.50;99.90
41904;DHT22;27586;51.124;4.182;2023-05-07T07:21:08;17.50;99.90
41904;DHT22;27586;51.124;4.182;2023-05-07T07:23:33;17.40;99.90
41904;DHT22;27586;51.124;4.182;2023-05-07T07:25:59;17.50;99.90
41904;DHT22;27586;51.124;4.182;2023-05-07T07:28:25;17.40;99.90
41904;DHT22;27586;51.124;4.182;2023-05-07T07:30:51;17.50;99.90
41904;DHT22;27586;51.124;4.182;2023-05-07T07:33:16;17.60;99.90
41904;DHT22;27586;51.124;4.182;2023-05-07T07:35:42;17.50;99.90
41904;DHT22;27586;51.124;4.182;2023-05-07T07:38:08;17.60;99.90
41904;DHT22;27586;51.124;4.182;2023-05-07T07:40:36;17.60;99.90
41904;DHT22;27586;51.124;4.182;2023-05-07T07:43:02;17.60;99.90
41904;DHT22;27586;51.124;4.182;2023-05-07T07:45:28;17.70;99.90
41904;DHT22;27586;51.124;4.182;2023-05-07T07:47:54;17.60;99.90
41904;DHT22;27586;51.124;4.182;2023-05-07T07:50:20;17.60;99.90
41904;DHT22;27586;51.124;4.182;2023-05-07T07:52:46;17.60;99.90
41904;DHT22;27586;51.124;4.182;2023-05-07T07:55:12;17.60;99.90
41904;DHT22;27586;51.124;4.182;2023-05-07T07:57:38;17.60;99.90
41904;DHT22;27586;51.124;4.182;2023-05-07T08:00:04;17.80;99.90
41904;DHT22;27586;51.124;4.182;2023-05-07T08:02:31;17.80;99.90
41904;DHT22;27586;51.124;4.182;2023-05-07T08:04:57;17.80;99.90
41904;DHT22;27586;51.124;4.182;2023-05-07T08:07:22;17.80;99.90
41904;DHT22;27586;51.124;4.182;2023-05-07T08:09:48;17.70;99.90
41904;DHT22;27586;51.124;4.182;2023-05-07T08:12:14;17.70;99.90
41904;DHT22;27586;51.124;4.182;2023-05-07T08:14:40;17.80;99.90
41904;DHT22;27586;51.124;4.182;2023-05-07T08:17:06;17.80;99.90
41904;DHT22;27586;51.124;4.182;2023-05-07T08:19:32;17.80;99.90
41904;DHT22;27586;51.124;4.182;2023-05-07T08:21:58;17.80;99.90
41904;DHT22;27586;51.124;4.182;2023-05-07T08:24:23;17.80;99.90
41904;DHT22;27586;51.124;4.182;2023-05-07T08:26:49;17.80;99.90
41904;DHT22;27586;51.124;4.182;2023-05-07T08:29:15;17.80;99.90
41904;DHT22;27586;51.124;4.182;2023-05-07T08:31:41;17.70;99.90
41904;DHT22;27586;51.124;4.182;2023-05-07T08:34:07;17.70;99.90
41904;DHT22;27586;51.124;4.182;2023-05-07T08:36:32;17.60;99.90
41904;DHT22;27586;51.124;4.182;2023-05-07T08:38:59;17.60;99.90
41904;DHT22;27586;51.124;4.182;2023-05-07T08:41:25;17.50;99.90
41904;DHT22;27586;51.124;4.182;2023-05-07T08:43:51;17.40;99.90
41904;DHT22;27586;51.124;4.182;2023-05-07T08:46:18;17.40;99.90
41904;DHT22;27586;51.124;4.182;2023-05-07T08:48:45;17.40;99.90
41904;DHT22;27586;51.124;4.182;2023-05-07T08:51:15;17.40;99.90
41904;DHT22;27586;51.124;4.182;2023-05-07T08:53:41;17.40;99.90
41904;DHT22;27586;51.124;4.182;2023-05-07T08:56:08;17.40;99.90
41904;DHT22;27586;51.124;4.182;2023-05-07T08:58:34;17.40;99.90
41904;DHT22;27586;51.124;4.182;2023-05-07T09:01:08;17.30;99.90
41904;DHT22;27586;51.124;4.182;2023-05-07T09:03:36;17.30;99.90
41904;DHT22;27586;51.124;4.182;2023-05-07T09:06:03;17.20;99.90
41904;DHT22;27586;51.124;4.182;2023-05-07T09:08:29;17.30;99.90
41904;DHT22;27586;51.124;4.182;2023-05-07T09:10:54;17.20;99.90
41904;DHT22;27586;51.124;4.182;2023-05-07T09:13:20;17.20;99.90
41904;DHT22;27586;51.124;4.182;2023-05-07T09:15:46;17.30;99.90
41904;DHT22;27586;51.124;4.182;2023-05-07T09:18:13;17.30;99.90
41904;DHT22;27586;51.124;4.182;2023-05-07T09:20:39;17.30;99.90
41904;DHT22;27586;51.124;4.182;2023-05-07T09:23:08;17.30;99.90
41904;DHT22;27586;51.124;4.182;2023-05-07T09:25:35;17.30;99.90
41904;DHT22;27586;51.124;4.182;2023-05-07T09:28:03;17.30;99.90
41904;DHT22;27586;51.124;4.182;2023-05-07T09:30:29;17.30;99.90
41904;DHT22;27586;51.124;4.182;2023-05-07T09:33:00;17.20;99.90
41904;DHT22;27586;51.124;4.182;2023-05-07T09:35:26;17.20;99.90
41904;DHT22;27586;51.124;4.182;2023-05-07T09:37:58;17.30;99.90
41904;DHT22;27586;51.124;4.182;2023-05-07T09:40:30;17.30;99.90
41904;DHT22;27586;51.124;4.182;2023-05-07T09:42:56;17.20;99.90
41904;DHT22;27586;51.124;4.182;2023-05-07T09:45:33;17.20;99.90
41904;DHT22;27586;51.124;4.182;2023-05-07T09:48:00;17.10;99.90
41904;DHT22;27586;51.124;4.182;2023-05-07T09:50:34;17.10;99.90
41904;DHT22;27586;51.124;4.182;2023-05-07T09:53:01;17.20;99.90
41904;DHT22;27586;51.124;4.182;2023-05-07T09:55:28;17.20;99.90
41904;DHT22;27586;51.124;4.182;2023-05-07T09:57:55;17.30;99.90
41904;DHT22;27586;51.124;4.182;2023-05-07T10:00:21;17.30;99.90
41904;DHT22;27586;51.124;4.182;2023-05-07T10:02:49;17.30;99.90
41904;DHT22;27586;51.124;4.182;2023-05-07T10:05:18;17.30;99.90
41904;DHT22;27586;51.124;4.182;2023-05-07T10:07:45;17.30;99.90
41904;DHT22;27586;51.124;4.182;2023-05-07T10:10:11;17.40;99.90
41904;DHT22;27586;51.124;4.182;2023-05-07T10:12:38;17.50;99.90
41904;DHT22;27586;51.124;4.182;2023-05-07T10:15:09;17.50;99.90
41904;DHT22;27586;51.124;4.182;2023-05-07T10:17:36;17.40;99.90
41904;DHT22;27586;51.124;4.182;2023-05-07T10:20:02;17.40;99.90
41904;DHT22;27586;51.124;4.182;2023-05-07T10:22:36;17.40;99.90
41904;DHT22;27586;51.124;4.182;2023-05-07T10:25:03;17.50;99.90
41904;DHT22;27586;51.124;4.182;2023-05-07T10:27:32;17.40;99.90
41904;DHT22;27586;51.124;4.182;2023-05-07T10:35:06;17.40;99.90
41904;DHT22;27586;51.124;4.182;2023-05-07T10:37:33;17.50;99.90
41904;DHT22;27586;51.124;4.182;2023-05-07T10:39:59;17.60;99.90
41904;DHT22;27586;51.124;4.182;2023-05-07T10:42:25;17.70;99.90
41904;DHT22;27586;51.124;4.182;2023-05-07T10:44:51;17.70;99.90
41904;DHT22;27586;51.124;4.182;2023-05-07T10:47:17;17.70;99.90
41904;DHT22;27586;51.124;4.182;2023-05-07T10:52:17;17.80;99.90
41904;DHT22;27586;51.124;4.182;2023-05-07T10:54:44;17.80;99.90
41904;DHT22;27586;51.124;4.182;2023-05-07T10:59:57;17.70;99.90
41904;DHT22;27586;51.124;4.182;2023-05-07T11:02:23;17.70;99.90
41904;DHT22;27586;51.124;4.182;2023-05-07T11:08:03;17.70;99.90
41904;DHT22;27586;51.124;4.182;2023-05-07T11:10:48;17.70;99.90
41904;DHT22;27586;51.124;4.182;2023-05-07T11:13:14;17.70;99.90
41904;DHT22;27586;51.124;4.182;2023-05-07T11:15:43;17.70;99.90
41904;DHT22;27586;51.124;4.182;2023-05-07T11:18:10;17.60;99.90
41904;DHT22;27586;51.124;4.182;2023-05-07T11:26:04;17.80;99.90
41904;DHT22;27586;51.124;4.182;2023-05-07T11:28:32;17.80;99.90
41904;DHT22;27586;51.124;4.182;2023-05-07T11:31:02;17.90;99.90
41904;DHT22;27586;51.124;4.182;2023-05-07T11:33:29;18.00;99.90
41904;DHT22;27586;51.124;4.182;2023-05-07T11:35:56;18.00;99.90
41904;DHT22;27586;51.124;4.182;2023-05-07T11:38:22;18.10;99.90
41904;DHT22;27586;51.124;4.182;2023-05-07T11:40:58;18.10;99.90
41904;DHT22;27586;51.124;4.182;2023-05-07T11:43:26;18.10;99.90
41904;DHT22;27586;51.124;4.182;2023-05-07T11:45:52;18.20;99.90
41904;DHT22;27586;51.124;4.182;2023-05-07T11:48:18;18.30;99.90
41904;DHT22;27586;51.124;4.182;2023-05-07T11:53:17;18.30;99.90
41904;DHT22;27586;51.124;4.182;2023-05-07T11:55:44;18.20;99.90
41904;DHT22;27586;51.124;4.182;2023-05-07T11:58:12;18.10;99.90
41904;DHT22;27586;51.124;4.182;2023-05-07T12:00:37;18.20;99.90
41904;DHT22;27586;51.124;4.182;2023-05-07T12:03:04;18.30;99.90
41904;DHT22;27586;51.124;4.182;2023-05-07T12:05:30;18.30;99.90
41904;DHT22;27586;51.124;4.182;2023-05-07T12:07:57;18.30;99.90
41904;DHT22;27586;51.124;4.182;2023-05-07T12:10:22;18.40;99.90
41904;DHT22;27586;51.124;4.182;2023-05-07T12:12:50;18.40;99.90
41904;DHT22;27586;51.124;4.182;2023-05-07T12:15:16;18.50;99.90
41904;DHT22;27586;51.124;4.182;2023-05-07T12:17:43;18.40;99.90
41904;DHT22;27586;51.124;4.182;2023-05-07T12:20:09;18.40;99.90
41904;DHT22;27586;51.124;4.182;2023-05-07T12:22:36;18.50;99.90
41904;DHT22;27586;51.124;4.182;2023-05-07T12:25:02;18.40;99.90
41904;DHT22;27586;51.124;4.182;2023-05-07T12:27:28;18.30;99.90
41904;DHT22;27586;51.124;4.182;2023-05-07T12:29:54;18.50;99.90
41904;DHT22;27586;51.124;4.182;2023-05-07T12:32:21;18.60;99.90
41904;DHT22;27586;51.124;4.182;2023-05-07T12:34:49;18.70;99.90
41904;DHT22;27586;51.124;4.182;2023-05-07T12:37:15;18.80;99.90
41904;DHT22;27586;51.124;4.182;2023-05-07T12:39:47;18.80;99.90
41904;DHT22;27586;51.124;4.182;2023-05-07T12:42:15;18.70;99.90
41904;DHT22;27586;51.124;4.182;2023-05-07T12:44:41;18.70;99.90
41904;DHT22;27586;51.124;4.182;2023-05-07T12:47:10;18.70;99.90
41904;DHT22;27586;51.124;4.182;2023-05-07T12:49:36;18.50;99.90
41904;DHT22;27586;51.124;4.182;2023-05-07T12:52:05;18.50;99.90
41904;DHT22;27586;51.124;4.182;2023-05-07T12:54:33;18.50;99.90
41904;DHT22;27586;51.124;4.182;2023-05-07T12:57:06;18.50;99.90
41904;DHT22;27586;51.124;4.182;2023-05-07T13:01:58;18.50;99.90
41904;DHT22;27586;51.124;4.182;2023-05-07T13:04:24;18.50;99.90
41904;DHT22;27586;51.124;4.182;2023-05-07T13:06:50;18.60;99.90
41904;DHT22;27586;51.124;4.182;2023-05-07T13:09:16;18.60;99.90
41904;DHT22;27586;51.124;4.182;2023-05-07T13:11:41;18.70;99.90
41904;DHT22;27586;51.124;4.182;2023-05-07T13:14:07;18.70;99.90
41904;DHT22;27586;51.124;4.182;2023-05-07T13:16:33;18.60;99.90
41904;DHT22;27586;51.124;4.182;2023-05-07T13:18:59;18.60;99.90
41904;DHT22;27586;51.124;4.182;2023-05-07T13:21:24;18.70;99.90
41904;DHT22;27586;51.124;4.182;2023-05-07T13:23:50;18.80;99.90
41904;DHT22;27586;51.124;4.182;2023-05-07T13:26:16;18.90;99.90
41904;DHT22;27586;51.124;4.182;2023-05-07T13:28:42;19.00;99.90
41904;DHT22;27586;51.124;4.182;2023-05-07T13:31:08;19.10;99.90
41904;DHT22;27586;51.124;4.182;2023-05-07T13:33:34;19.10;99.90
41904;DHT22;27586;51.124;4.182;2023-05-07T13:36:01;19.30;99.90
41904;DHT22;27586;51.124;4.182;2023-05-07T13:38:27;19.20;99.90
41904;DHT22;27586;51.124;4.182;2023-05-07T13:40:53;19.20;99.90
41904;DHT22;27586;51.124;4.182;2023-05-07T13:43:19;19.20;99.90
41904;DHT22;27586;51.124;4.182;2023-05-07T13:45:45;19.20;99.90
41904;DHT22;27586;51.124;4.182;2023-05-07T13:48:10;19.20;99.90
41904;DHT22;27586;51.124;4.182;2023-05-07T13:50:37;19.10;99.90
41904;DHT22;27586;51.124;4.182;2023-05-07T13:53:03;19.00;99.90
41904;DHT22;27586;51.124;4.182;2023-05-07T13:55:29;19.00;99.90
41904;DHT22;27586;51.124;4.182;2023-05-07T13:57:56;18.90;99.90
41904;DHT22;27586;51.124;4.182;2023-05-07T14:00:23;18.70;99.90
41904;DHT22;27586;51.124;4.182;2023-05-07T14:02:49;18.70;99.90
41904;DHT22;27586;51.124;4.182;2023-05-07T14:05:14;18.60;99.90
41904;DHT22;27586;51.124;4.182;2023-05-07T14:07:40;18.70;99.90
41904;DHT22;27586;51.124;4.182;2023-05-07T14:10:06;18.80;99.90
41904;DHT22;27586;51.124;4.182;2023-05-07T14:12:32;18.80;99.90
41904;DHT22;27586;51.124;4.182;2023-05-07T14:14:58;18.80;99.90
41904;DHT22;27586;51.124;4.182;2023-05-07T14:17:24;18.90;99.90
41904;DHT22;27586;51.124;4.182;2023-05-07T14:19:53;18.90;99.90
41904;DHT22;27586;51.124;4.182;2023-05-07T14:22:20;19.00;99.90
41904;DHT22;27586;51.124;4.182;2023-05-07T14:24:46;19.00;99.90
41904;DHT22;27586;51.124;4.182;2023-05-07T14:27:12;19.00;99.90
41904;DHT22;27586;51.124;4.182;2023-05-07T14:29:38;19.10;99.90
41904;DHT22;27586;51.124;4.182;2023-05-07T14:32:03;19.20;99.90
41904;DHT22;27586;51.124;4.182;2023-05-07T14:34:29;19.20;99.90
41904;DHT22;27586;51.124;4.182;2023-05-07T14:36:55;19.30;99.90
41904;DHT22;27586;51.124;4.182;2023-05-07T14:39:21;19.30;99.90
41904;DHT22;27586;51.124;4.182;2023-05-07T14:41:47;19.40;99.90
41904;DHT22;27586;51.124;4.182;2023-05-07T14:44:12;19.50;99.90
41904;DHT22;27586;51.124;4.182;2023-05-07T14:46:38;19.50;99.90
41904;DHT22;27586;51.124;4.182;2023-05-07T14:49:04;19.40;99.90
41904;DHT22;27586;51.124;4.182;2023-05-07T14:51:30;19.40;99.90
41904;DHT22;27586;51.124;4.182;2023-05-07T14:53:56;19.40;99.90
41904;DHT22;27586;51.124;4.182;2023-05-07T14:56:22;19.50;99.90
41904;DHT22;27586;51.124;4.182;2023-05-07T14:58:48;19.50;99.90
41904;DHT22;27586;51.124;4.182;2023-05-07T15:01:14;19.60;99.90
41904;DHT22;27586;51.124;4.182;2023-05-07T15:03:40;19.50;99.90
41904;DHT22;27586;51.124;4.182;2023-05-07T15:06:06;19.50;99.90
41904;DHT22;27586;51.124;4.182;2023-05-07T15:08:31;19.50;99.90
41904;DHT22;27586;51.124;4.182;2023-05-07T15:10:57;19.60;99.90
41904;DHT22;27586;51.124;4.182;2023-05-07T15:13:23;19.50;99.90
41904;DHT22;27586;51.124;4.182;2023-05-07T15:15:48;19.50;99.90
41904;DHT22;27586;51.124;4.182;2023-05-07T15:18:15;19.40;99.90
41904;DHT22;27586;51.124;4.182;2023-05-07T15:20:41;19.50;99.90
41904;DHT22;27586;51.124;4.182;2023-05-07T15:23:08;19.60;99.90
41904;DHT22;27586;51.124;4.182;2023-05-07T15:25:40;19.60;99.90
41904;DHT22;27586;51.124;4.182;2023-05-07T15:28:06;19.60;99.90
41904;DHT22;27586;51.124;4.182;2023-05-07T15:30:32;19.70;99.90
41904;DHT22;27586;51.124;4.182;2023-05-07T15:32:58;19.70;99.90
41904;DHT22;27586;51.124;4.182;2023-05-07T15:35:24;19.60;99.90
41904;DHT22;27586;51.124;4.182;2023-05-07T15:37:51;19.50;99.90
41904;DHT22;27586;51.124;4.182;2023-05-07T15:40:17;19.70;99.90
41904;DHT22;27586;51.124;4.182;2023-05-07T15:42:44;19.70;99.90
41904;DHT22;27586;51.124;4.182;2023-05-07T15:45:10;19.80;99.90
41904;DHT22;27586;51.124;4.182;2023-05-07T15:47:36;19.70;99.90
41904;DHT22;27586;51.124;4.182;2023-05-07T15:50:03;19.70;99.90